createdAt,value
2023-02-23T00:01:03.052Z,96.62
2023-02-23T00:19:27.211Z,95.62
2023-02-23T00:22:21.559Z,94.25
2023-02-23T00:28:21.230Z,95.45
2023-02-23T00:57:38.844Z,96.27
2023-02-23T01:08:55.153Z,96.54
2023-02-23T01:42:26.177Z,95.27
2023-02-23T01:44:53.018Z,95.93
2023-02-23T01:47:20.720Z,95.73
2023-02-23T01:49:48.104Z,95.11
2023-02-23T01:52:17.784Z,96.42
2023-02-23T01:54:52.218Z,96.34
2023-02-23T01:57:25.322Z,97.08
2023-02-23T01:59:52.808Z,96.89
2023-02-23T02:02:23.648Z,97.21
2023-02-23T02:04:52.527Z,96.33
2023-02-23T02:07:25.190Z,98.15
2023-02-23T02:10:21.835Z,98.13
2023-02-23T02:13:07.686Z,98.13
2023-02-23T02:16:00.410Z,98.85
2023-02-23T02:18:58.801Z,97.58
2023-02-23T02:22:11.059Z,97.30
2023-02-23T02:25:00.493Z,96.98
2023-02-23T02:28:04.544Z,97.82
2023-02-23T02:31:02.313Z,96.38
2023-02-23T02:34:08.848Z,95.38
2023-02-23T02:37:12.419Z,96.41
2023-02-23T02:39:55.137Z,96.02
2023-02-23T02:42:40.408Z,95.90
2023-02-23T02:45:40.471Z,96.87
2023-02-23T02:48:31.309Z,96.86
2023-02-23T02:51:04.714Z,96.26
2023-02-23T02:53:41.861Z,95.67
2023-02-23T02:56:10.231Z,96.85
2023-02-23T02:58:39.240Z,97.01
2023-02-23T03:01:27.804Z,95.98
2023-02-23T03:04:13.087Z,95.81
2023-02-23T03:07:17.866Z,96.48
2023-02-23T03:10:19.846Z,97.07
2023-02-23T03:13:19.505Z,97.05
2023-02-23T03:16:27.950Z,95.20
2023-02-23T03:19:45.045Z,95.04
2023-02-23T03:22:52.553Z,97.15
2023-02-23T03:25:43.370Z,98.26
2023-02-23T03:28:50.011Z,99.32
2023-02-23T03:31:45.071Z,99.74
2023-02-23T03:34:41.393Z,98.85
2023-02-23T03:37:45.460Z,99.42
2023-02-23T03:40:50.146Z,98.77
2023-02-23T03:43:45.199Z,98.76
2023-02-23T03:46:33.470Z,99.52
2023-02-23T03:49:22.691Z,98.77
2023-02-23T03:52:14.798Z,98.44
2023-02-23T03:55:08.323Z,98.62
2023-02-23T03:57:56.982Z,97.80
2023-02-23T04:00:53.246Z,98.14
2023-02-23T04:03:40.734Z,99.62
2023-02-23T04:06:30.324Z,98.30
2023-02-23T04:09:20.158Z,98.71
2023-02-23T04:12:42.544Z,98.02
2023-02-23T04:15:15.681Z,99.71
2023-02-23T04:17:43.514Z,97.88
2023-02-23T04:20:14.053Z,98.18
2023-02-23T04:22:40.969Z,99.16
2023-02-23T04:25:09.224Z,97.49
2023-02-23T04:27:36.893Z,98.51
2023-02-23T04:30:04.598Z,98.45
2023-02-23T04:32:31.808Z,98.76
2023-02-23T04:34:58.904Z,98.68
2023-02-23T04:37:25.842Z,99.80
2023-02-23T04:39:52.839Z,99.37
2023-02-23T04:42:20.148Z,99.62
2023-02-23T04:44:47.289Z,100.00
2023-02-23T04:47:17.592Z,100.00
2023-02-23T04:49:45.049Z,100.00
2023-02-23T04:52:12.443Z,99.89
2023-02-23T04:54:40.271Z,100.00
2023-02-23T04:57:07.558Z,99.71
2023-02-23T04:59:34.554Z,99.00
2023-02-23T05:02:01.752Z,100.00
2023-02-23T05:04:29.091Z,100.00
2023-02-23T05:06:56.055Z,100.00
2023-02-23T05:09:22.972Z,100.00
2023-02-23T05:11:50.683Z,99.61
2023-02-23T05:14:17.615Z,99.24
2023-02-23T05:16:44.611Z,99.55
2023-02-23T05:19:12.260Z,100.00
2023-02-23T05:21:39.379Z,100.00
2023-02-23T05:24:06.515Z,99.53
2023-02-23T05:26:34.038Z,99.39
2023-02-23T05:29:01.216Z,99.46
2023-02-23T05:31:28.998Z,98.82
2023-02-23T05:33:55.965Z,100.00
2023-02-23T05:36:23.041Z,100.00
2023-02-23T05:38:50.072Z,100.00
2023-02-23T05:41:19.978Z,100.00
2023-02-23T05:43:51.357Z,100.00
2023-02-23T05:46:22.661Z,100.00
2023-02-23T05:48:50.027Z,100.00
2023-02-23T05:51:17.785Z,100.00
2023-02-23T05:53:46.930Z,100.00
2023-02-23T05:56:21.048Z,100.00
2023-02-23T05:58:52.917Z,100.00
2023-02-23T06:01:21.944Z,99.72
2023-02-23T06:03:49.671Z,100.00
2023-02-23T06:06:17.990Z,100.00
2023-02-23T06:08:45.482Z,98.84
2023-02-23T06:11:12.516Z,99.21
2023-02-23T06:13:39.472Z,98.53
2023-02-23T06:16:07.035Z,98.30
2023-02-23T06:18:34.463Z,98.48
2023-02-23T06:21:02.427Z,98.58
2023-02-23T06:23:29.911Z,98.54
2023-02-23T06:25:58.292Z,96.62
2023-02-23T06:28:25.774Z,96.38
2023-02-23T06:30:54.548Z,95.67
2023-02-23T06:33:22.488Z,97.17
2023-02-23T06:35:49.772Z,96.12
2023-02-23T06:38:16.994Z,96.22
2023-02-23T06:40:44.006Z,96.65
2023-02-23T06:43:11.709Z,96.14
2023-02-23T06:45:38.910Z,96.52
2023-02-23T06:48:06.091Z,95.95
2023-02-23T06:50:34.019Z,95.80
2023-02-23T06:53:00.990Z,96.01
2023-02-23T06:55:27.907Z,95.03
2023-02-23T06:57:54.853Z,93.56
2023-02-23T07:00:22.340Z,92.51
2023-02-23T07:02:49.281Z,91.54
2023-02-23T07:05:16.504Z,91.72
2023-02-23T07:07:44.241Z,91.94
2023-02-23T07:10:11.896Z,91.74
2023-02-23T07:12:39.129Z,91.28
2023-02-23T07:15:06.659Z,90.58
2023-02-23T07:17:33.713Z,90.84
2023-02-23T07:20:00.641Z,90.25
2023-02-23T07:22:30.527Z,90.83
2023-02-23T07:24:58.053Z,89.45
2023-02-23T07:27:25.651Z,88.57
2023-02-23T07:29:52.726Z,88.66
2023-02-23T07:32:19.749Z,88.87
2023-02-23T07:34:48.026Z,88.89
2023-02-23T07:37:15.795Z,89.78
2023-02-23T07:39:42.949Z,88.26
2023-02-23T07:42:10.085Z,89.73
2023-02-23T07:44:38.378Z,88.93
2023-02-23T07:47:06.256Z,88.36
2023-02-23T07:49:34.470Z,88.74
2023-02-23T07:52:01.402Z,87.80
2023-02-23T07:54:28.441Z,87.94
2023-02-23T07:56:55.404Z,87.65
2023-02-23T07:59:22.367Z,87.73
2023-02-23T08:01:49.342Z,87.38
2023-02-23T08:04:16.290Z,87.11
2023-02-23T08:06:43.212Z,87.18
2023-02-23T08:09:12.250Z,86.80
2023-02-23T08:11:39.795Z,85.79
2023-02-23T08:14:06.688Z,85.70
2023-02-23T08:16:34.242Z,85.23
2023-02-23T08:19:01.609Z,84.48
2023-02-23T08:21:29.749Z,84.73
2023-02-23T08:23:58.416Z,84.41
2023-02-23T08:26:25.739Z,84.00
2023-02-23T08:28:53.772Z,84.28
2023-02-23T08:31:24.427Z,82.95
2023-02-23T08:33:52.764Z,83.48
2023-02-23T08:36:21.123Z,83.98
2023-02-23T08:38:48.509Z,83.84
2023-02-23T08:41:15.519Z,82.90
2023-02-23T08:43:44.088Z,81.66
2023-02-23T08:46:12.994Z,80.48
2023-02-23T08:48:40.846Z,78.93
2023-02-23T08:51:09.035Z,78.99
2023-02-23T08:53:36.551Z,78.85
2023-02-23T08:56:06.604Z,77.42
2023-02-23T08:58:35.229Z,77.26
2023-02-23T09:01:03.164Z,76.45
2023-02-23T09:03:30.951Z,77.94
2023-02-23T09:06:09.090Z,76.60
2023-02-23T09:08:36.263Z,76.37
2023-02-23T09:11:03.222Z,75.48
2023-02-23T09:13:30.327Z,75.50
2023-02-23T09:15:57.291Z,73.03
2023-02-23T09:18:29.767Z,73.14
2023-02-23T09:20:57.389Z,72.97
2023-02-23T09:23:28.438Z,71.51
2023-02-23T09:25:55.386Z,70.31
2023-02-23T09:28:22.438Z,70.19
2023-02-23T09:30:49.463Z,71.00
2023-02-23T09:33:17.449Z,70.72
2023-02-23T09:35:44.369Z,71.15
2023-02-23T09:38:11.268Z,70.31
2023-02-23T09:40:50.274Z,70.57
2023-02-23T09:43:20.036Z,69.63
2023-02-23T09:45:53.109Z,69.70
2023-02-23T09:48:23.761Z,68.80
2023-02-23T09:50:53.590Z,67.95
2023-02-23T09:53:33.423Z,68.61
2023-02-23T09:56:04.523Z,67.42
2023-02-23T09:58:34.302Z,66.37
2023-02-23T10:01:26.049Z,67.23
2023-02-23T10:03:57.936Z,66.28
2023-02-23T10:06:24.829Z,65.35
2023-02-23T10:09:16.225Z,65.60
2023-02-23T10:11:56.566Z,64.19
2023-02-23T10:14:30.859Z,66.12
2023-02-23T10:17:10.136Z,65.92
2023-02-23T10:20:02.280Z,65.54
2023-02-23T10:22:30.226Z,64.88
2023-02-23T10:25:05.069Z,63.61
2023-02-23T10:27:51.524Z,63.42
2023-02-23T10:30:27.445Z,62.78
2023-02-23T10:33:32.124Z,62.75
2023-02-23T10:36:13.749Z,61.68
2023-02-23T10:38:41.361Z,62.65
2023-02-23T10:41:13.085Z,61.97
2023-02-23T10:43:41.720Z,61.83
2023-02-23T10:46:18.826Z,61.39
2023-02-23T10:48:47.864Z,60.29
2023-02-23T10:51:27.285Z,59.98
2023-02-23T10:53:54.231Z,60.91
2023-02-23T10:56:23.207Z,60.45
2023-02-23T10:58:56.776Z,59.32
2023-02-23T11:02:00.742Z,60.30
2023-02-23T11:04:31.285Z,59.85
2023-02-23T11:07:16.417Z,59.58
2023-02-23T11:09:47.392Z,59.47
2023-02-23T11:12:23.053Z,59.11
2023-02-23T11:14:52.330Z,59.29
2023-02-23T11:17:30.380Z,60.37
2023-02-23T11:20:19.063Z,59.32
2023-02-23T11:22:46.442Z,58.54
2023-02-23T11:25:38.931Z,57.78
2023-02-23T11:28:05.909Z,60.06
2023-02-23T11:30:38.340Z,58.97
2023-02-23T11:33:11.368Z,59.33
2023-02-23T11:35:38.830Z,59.48
2023-02-23T11:38:25.280Z,58.79
2023-02-23T11:41:05.728Z,59.43
2023-02-23T11:43:32.701Z,59.15
2023-02-23T11:46:02.606Z,58.27
2023-02-23T11:48:37.907Z,58.77
2023-02-23T11:51:05.514Z,58.49
2023-02-23T11:53:36.765Z,58.50
2023-02-23T11:56:11.299Z,59.12
2023-02-23T11:58:50.150Z,58.42
2023-02-23T12:01:23.742Z,58.98
2023-02-23T12:03:57.466Z,56.48
2023-02-23T12:06:34.298Z,59.21
2023-02-23T12:09:27.167Z,60.90
2023-02-23T12:12:02.568Z,59.54
2023-02-23T12:14:53.611Z,58.19
2023-02-23T12:17:26.910Z,58.56
2023-02-23T12:20:11.358Z,59.54
2023-02-23T12:22:51.802Z,58.36
2023-02-23T12:25:28.581Z,58.77
2023-02-23T12:28:18.271Z,59.22
2023-02-23T12:30:55.205Z,57.73
2023-02-23T12:33:30.346Z,58.60
2023-02-23T12:36:04.345Z,57.43
2023-02-23T12:38:48.946Z,57.29
2023-02-23T12:41:30.721Z,57.64
2023-02-23T12:44:03.544Z,58.74
2023-02-23T12:46:47.744Z,58.37
2023-02-23T12:49:33.527Z,57.53
2023-02-23T12:52:11.740Z,58.36
2023-02-23T12:54:38.649Z,58.27
2023-02-23T12:57:21.353Z,58.20
2023-02-23T12:59:57.533Z,57.84
2023-02-23T13:02:41.536Z,58.53
2023-02-23T13:05:34.717Z,59.01
2023-02-23T13:08:22.261Z,59.14
2023-02-23T13:11:11.531Z,58.43
2023-02-23T13:13:44.158Z,58.87
2023-02-23T13:16:31.258Z,59.33
2023-02-23T13:19:16.632Z,58.63
2023-02-23T13:21:54.390Z,60.38
2023-02-23T13:24:30.302Z,59.73
2023-02-23T13:27:02.068Z,59.94
2023-02-23T13:29:40.210Z,59.37
2023-02-23T13:32:18.089Z,59.62
2023-02-23T13:35:01.043Z,60.79
2023-02-23T13:37:41.291Z,60.54
2023-02-23T13:40:26.545Z,59.64
2023-02-23T13:43:18.023Z,60.54
2023-02-23T13:45:54.473Z,60.72
2023-02-23T13:48:33.397Z,60.33
2023-02-23T13:51:03.023Z,61.37
2023-02-23T13:53:47.237Z,61.71
2023-02-23T13:56:20.316Z,62.07
2023-02-23T13:59:12.169Z,62.16
2023-02-23T14:01:43.981Z,62.27
2023-02-23T14:04:21.204Z,62.31
2023-02-23T14:07:11.444Z,62.55
2023-02-23T14:09:44.923Z,61.36
2023-02-23T14:12:13.283Z,61.11
2023-02-23T14:14:45.134Z,61.72
2023-02-23T14:17:14.949Z,62.64
2023-02-23T14:19:43.381Z,63.60
2023-02-23T14:22:18.774Z,62.28
2023-02-23T14:24:45.729Z,62.66
2023-02-23T14:27:41.138Z,63.50
2023-02-23T14:30:11.850Z,62.93
2023-02-23T14:32:41.510Z,62.97
2023-02-23T14:35:34.132Z,62.28
2023-02-23T14:38:47.512Z,63.01
2023-02-23T14:41:15.441Z,63.07
2023-02-23T14:43:45.522Z,62.93
2023-02-23T14:46:18.814Z,62.48
2023-02-23T14:49:10.585Z,63.56
2023-02-23T14:51:49.394Z,63.23
2023-02-23T14:54:30.715Z,63.02
2023-02-23T14:57:00.036Z,63.44
2023-02-23T14:59:39.363Z,63.70
2023-02-23T15:02:31.361Z,63.59
2023-02-23T15:04:58.437Z,64.36
2023-02-23T15:07:41.942Z,64.80
2023-02-23T15:10:11.566Z,65.12
2023-02-23T15:12:39.283Z,65.25
2023-02-23T15:15:21.086Z,65.52
2023-02-23T15:17:52.931Z,65.59
2023-02-23T15:20:28.983Z,65.79
2023-02-23T15:22:59.453Z,66.44
2023-02-23T15:25:37.689Z,66.43
2023-02-23T15:28:25.493Z,67.55
2023-02-23T15:30:55.523Z,68.03
2023-02-23T15:33:28.814Z,67.99
2023-02-23T15:36:01.070Z,70.01
2023-02-23T15:38:43.448Z,69.85
2023-02-23T15:41:29.725Z,71.63
2023-02-23T15:44:03.854Z,72.50
2023-02-23T15:46:32.924Z,71.81
2023-02-23T15:49:03.746Z,71.97
2023-02-23T15:51:38.529Z,71.70
2023-02-23T15:54:16.831Z,72.22
2023-02-23T15:56:47.064Z,72.12
2023-02-23T15:59:21.113Z,72.41
2023-02-23T16:01:48.226Z,72.91
2023-02-23T16:04:15.245Z,73.64
2023-02-23T16:07:06.465Z,72.88
2023-02-23T16:09:34.396Z,73.59
2023-02-23T16:12:04.873Z,73.78
2023-02-23T16:14:45.271Z,73.95
2023-02-23T16:17:33.600Z,75.10
2023-02-23T16:20:13.888Z,75.44
2023-02-23T16:22:46.197Z,75.93
2023-02-23T16:25:16.995Z,75.37
2023-02-23T16:27:45.997Z,75.42
2023-02-23T16:30:23.579Z,75.79
2023-02-23T16:33:11.419Z,76.20
2023-02-23T16:35:50.174Z,76.12
2023-02-23T16:38:26.867Z,76.44
2023-02-23T16:40:54.265Z,76.45
2023-02-23T16:43:21.762Z,77.26
2023-02-23T16:45:48.955Z,76.91
2023-02-23T16:48:17.814Z,76.52
2023-02-23T16:50:46.040Z,76.92
2023-02-23T16:53:13.446Z,77.17
2023-02-23T16:55:47.284Z,76.64
2023-02-23T16:58:19.592Z,76.36
2023-02-23T17:00:46.681Z,76.17
2023-02-23T17:03:21.704Z,76.18
2023-02-23T17:05:49.635Z,75.55
2023-02-23T17:08:16.925Z,75.67
2023-02-23T17:10:47.912Z,76.04
2023-02-23T17:13:25.644Z,75.77
2023-02-23T17:15:56.364Z,75.53
2023-02-23T17:18:29.237Z,75.71
2023-02-23T17:20:58.005Z,76.25
2023-02-23T17:23:27.445Z,75.96
2023-02-23T17:25:56.264Z,76.13
2023-02-23T17:28:23.378Z,75.80
2023-02-23T17:30:50.513Z,76.36
2023-02-23T17:33:17.861Z,75.91
2023-02-23T17:35:47.098Z,75.93
2023-02-23T17:38:15.194Z,76.78
2023-02-23T17:40:42.163Z,76.47
2023-02-23T17:43:09.592Z,75.73
2023-02-23T17:45:36.692Z,76.13
2023-02-23T17:48:03.844Z,75.58
2023-02-23T17:50:31.152Z,75.88
2023-02-23T17:52:58.738Z,75.88
2023-02-23T17:55:26.164Z,76.16
2023-02-23T17:57:53.146Z,75.94
2023-02-23T18:00:21.087Z,75.71
2023-02-23T18:02:48.446Z,75.86
2023-02-23T18:05:16.045Z,75.72
2023-02-23T18:07:44.702Z,76.17
2023-02-23T18:10:14.777Z,76.11
2023-02-23T18:12:42.101Z,76.04
2023-02-23T18:15:09.652Z,75.27
2023-02-23T18:17:37.403Z,75.76
2023-02-23T18:20:07.501Z,75.88
2023-02-23T18:22:34.673Z,75.71
2023-02-23T18:25:01.670Z,75.98
2023-02-23T18:27:28.561Z,75.87
2023-02-23T18:29:55.536Z,75.86
2023-02-23T18:32:22.640Z,75.98
2023-02-23T18:34:49.662Z,76.20
2023-02-23T18:37:21.701Z,75.99
2023-02-23T18:39:52.766Z,76.76
2023-02-23T18:42:19.845Z,77.05
2023-02-23T18:44:46.828Z,76.95
2023-02-23T18:47:13.981Z,77.11
2023-02-23T18:49:40.994Z,77.14
2023-02-23T18:52:09.478Z,77.15
2023-02-23T18:54:38.836Z,77.30
2023-02-23T18:57:05.974Z,77.03
2023-02-23T18:59:33.719Z,77.27
2023-02-23T19:02:03.178Z,76.88
2023-02-23T19:04:30.335Z,77.26
2023-02-23T19:06:57.252Z,76.81
2023-02-23T19:09:24.163Z,77.44
2023-02-23T19:11:51.384Z,76.62
2023-02-23T19:14:22.026Z,76.73
2023-02-23T19:16:50.941Z,76.72
2023-02-23T19:19:18.875Z,77.09
2023-02-23T19:21:45.869Z,77.34
2023-02-23T19:24:12.746Z,76.72
2023-02-23T19:26:40.759Z,77.05
2023-02-23T19:29:08.041Z,77.54
2023-02-23T19:31:35.142Z,77.15
2023-02-23T19:34:05.278Z,77.74
2023-02-23T19:36:34.605Z,78.23
2023-02-23T19:39:11.218Z,77.93
2023-02-23T19:41:40.129Z,77.89
2023-02-23T19:44:07.411Z,77.70
2023-02-23T19:46:35.219Z,78.11
2023-02-23T19:49:02.360Z,78.12
2023-02-23T19:51:29.699Z,77.68
2023-02-23T19:53:58.653Z,77.58
2023-02-23T19:56:28.106Z,77.76
2023-02-23T19:58:57.065Z,78.18
2023-02-23T20:01:27.768Z,78.30
2023-02-23T20:03:55.677Z,78.15
2023-02-23T20:06:25.266Z,78.27
2023-02-23T20:08:52.926Z,78.00
2023-02-23T20:11:20.286Z,78.16
2023-02-23T20:13:47.498Z,77.98
2023-02-23T20:16:15.106Z,77.83
2023-02-23T20:18:42.537Z,77.70
2023-02-23T20:21:12.902Z,77.79
2023-02-23T20:23:41.349Z,77.88
2023-02-23T20:26:12.929Z,78.12
2023-02-23T20:28:40.094Z,78.25
2023-02-23T20:31:21.437Z,78.28
2023-02-23T20:33:51.629Z,78.33
2023-02-23T20:36:21.301Z,78.23
2023-02-23T20:38:48.507Z,78.84
2023-02-23T20:41:15.658Z,77.67
2023-02-23T20:43:44.086Z,78.36
2023-02-23T20:46:17.677Z,77.59
2023-02-23T20:48:45.340Z,77.45
2023-02-23T20:51:19.061Z,78.22
2023-02-23T20:53:48.307Z,78.12
2023-02-23T20:56:18.249Z,77.86
2023-02-23T20:58:45.933Z,78.62
2023-02-23T21:01:20.144Z,77.99
2023-02-23T21:03:47.346Z,78.51
2023-02-23T21:06:16.444Z,78.17
2023-02-23T21:08:46.421Z,78.73
2023-02-23T21:11:13.333Z,78.38
2023-02-23T21:13:40.237Z,78.88
2023-02-23T21:16:07.574Z,78.90
2023-02-23T21:18:34.505Z,78.27
2023-02-23T21:21:09.716Z,78.78
2023-02-23T21:23:39.311Z,78.87
2023-02-23T21:26:14.526Z,78.65
2023-02-23T21:28:46.276Z,79.09
2023-02-23T21:31:14.763Z,78.56
2023-02-23T21:33:43.656Z,78.49
2023-02-23T21:36:12.732Z,78.64
2023-02-23T21:38:44.436Z,78.20
2023-02-23T21:41:13.732Z,78.16
2023-02-23T21:43:42.857Z,77.87
2023-02-23T21:46:15.918Z,77.97
2023-02-23T21:48:43.677Z,78.07
2023-02-23T21:51:13.561Z,78.21
2023-02-23T21:53:41.238Z,78.03
2023-02-23T21:56:16.395Z,77.81
2023-02-23T21:58:48.944Z,77.96
2023-02-23T22:01:30.333Z,77.43
2023-02-23T22:03:58.214Z,77.69
2023-02-23T22:06:28.083Z,77.88
2023-02-23T22:08:55.739Z,78.16
2023-02-23T22:11:25.784Z,77.65
2023-02-23T22:14:01.341Z,77.85
2023-02-23T22:16:31.870Z,78.47
2023-02-23T22:18:58.961Z,78.13
2023-02-23T22:21:25.851Z,78.09
2023-02-23T22:23:54.118Z,78.01
2023-02-23T22:26:21.075Z,78.31
2023-02-23T22:28:48.074Z,78.40
2023-02-23T22:31:15.868Z,79.03
2023-02-23T22:33:44.659Z,78.72
2023-02-23T22:36:14.255Z,78.38
2023-02-23T22:38:42.055Z,79.19
2023-02-23T22:41:11.238Z,79.18
2023-02-23T22:43:42.284Z,79.39
2023-02-23T22:46:09.672Z,79.34
2023-02-23T22:48:37.065Z,78.85
2023-02-23T22:51:04.954Z,79.03
2023-02-23T22:53:32.342Z,79.69
2023-02-23T22:55:59.871Z,79.21
2023-02-23T22:58:26.754Z,79.54
2023-02-23T23:01:06.687Z,79.15
2023-02-23T23:03:35.869Z,79.86
2023-02-23T23:06:08.395Z,79.55
2023-02-23T23:08:38.897Z,79.50
2023-02-23T23:11:09.677Z,79.54
2023-02-23T23:13:45.111Z,79.34
2023-02-23T23:16:28.901Z,80.03
2023-02-23T23:19:04.218Z,79.55
2023-02-23T23:21:33.385Z,80.08
2023-02-23T23:24:06.153Z,79.86
2023-02-23T23:26:36.699Z,80.04
2023-02-23T23:29:05.631Z,79.52
2023-02-23T23:31:35.139Z,79.67
2023-02-23T23:34:06.202Z,79.79
2023-02-23T23:36:37.534Z,79.65
2023-02-23T23:39:06.393Z,79.89
2023-02-23T23:41:35.611Z,80.41
2023-02-23T23:44:05.407Z,80.48
2023-02-23T23:46:38.976Z,80.68
2023-02-23T23:49:11.273Z,80.17
2023-02-23T23:51:45.517Z,80.77
2023-02-23T23:54:15.098Z,80.56
2023-02-23T23:56:43.803Z,80.64
2023-02-23T23:59:17.181Z,80.35
